Time;durP1;ratioP1;P1;durP2;ratioP2;P2;SDS_P1;SDS_P2;PMS_P1;PMS_P2;Temp;Humidity;BMP_temperature;BMP_pressure;BME280_temperature;BME280_humidity;BME280_pressure;Samples;Min_cycle;Max_cycle;Signal;HPM_P1;HPM_P2
2024/01/04 00:01:59;;;;;;;1.48;1.38;;;;;;;6.28;96.63;96447.84;4987509;28;20034;-74
2024/01/04 00:04:24;;;;;;;0.65;0.65;;;;;;;6.23;96.44;96447.91;4990547;28;20030;-75
2024/01/04 00:06:50;;;;;;;2.92;0.98;;;;;;;6.32;96.95;96458.66;4985018;28;20022;-75
2024/01/04 00:09:15;;;;;;;0.70;0.55;;;;;;;6.30;96.73;96458.16;4989085;28;20622;-75
2024/01/04 00:11:40;;;;;;;1.70;0.80;;;;;;;6.32;96.61;96451.53;4988792;28;20507;-75
2024/01/04 00:14:07;;;;;;;3.05;0.95;;;;;;;6.26;96.60;96450.00;4989211;28;20973;-76
2024/01/04 00:16:33;;;;;;;5.68;1.48;;;;;;;6.18;97.26;96458.53;4984294;28;20034;-74
2024/01/04 00:18:58;;;;;;;2.40;1.10;;;;;;;6.13;96.97;96455.16;4987673;28;20035;-75
2024/01/04 00:21:24;;;;;;;1.20;1.10;;;;;;;6.21;96.88;96463.28;4989220;28;20042;-76
2024/01/04 00:23:49;;;;;;;2.85;1.38;;;;;;;6.24;96.76;96456.63;4987380;28;20030;-75
2024/01/04 00:26:14;;;;;;;1.73;1.20;;;;;;;6.24;96.79;96459.28;4985759;28;20041;-76
2024/01/04 00:28:40;;;;;;;1.73;0.98;;;;;;;6.26;96.40;96457.94;4986491;28;20479;-75
2024/01/04 00:31:05;;;;;;;3.67;1.48;;;;;;;6.40;96.48;96460.72;4983597;28;20045;-75
2024/01/04 00:33:30;;;;;;;1.45;0.90;;;;;;;6.29;95.63;96470.59;4987926;28;20034;-75
2024/01/04 00:35:56;;;;;;;1.13;0.90;;;;;;;6.18;95.94;96473.66;4983777;28;20035;-75
2024/01/04 00:38:21;;;;;;;0.52;0.52;;;;;;;6.19;96.46;96475.22;4980524;28;20027;-75
2024/01/04 00:40:47;;;;;;;1.85;0.52;;;;;;;6.22;95.92;96469.38;4984908;28;20033;-76
2024/01/04 00:43:12;;;;;;;3.42;1.10;;;;;;;6.23;95.13;96473.59;4988470;28;20038;-75
2024/01/04 00:45:38;;;;;;;4.00;1.55;;;;;;;6.21;95.74;96484.47;4985591;28;20168;-76
2024/01/04 00:48:03;;;;;;;1.67;0.98;;;;;;;6.26;95.21;96502.97;4986623;28;20617;-75
2024/01/04 00:50:28;;;;;;;3.45;0.85;;;;;;;6.02;96.45;96492.31;4990734;28;20030;-74
2024/01/04 00:52:54;;;;;;;1.27;1.17;;;;;;;6.05;96.39;96470.56;4985496;28;20045;-75
2024/01/04 00:55:19;;;;;;;2.63;1.17;;;;;;;6.15;95.66;96479.50;4982091;28;20027;-76
2024/01/04 00:57:44;;;;;;;2.38;1.25;;;;;;;6.14;94.94;96476.03;4986622;28;20505;-76
2024/01/04 01:00:10;;;;;;;0.60;0.60;;;;;;;6.14;95.38;96477.94;4989593;28;20050;-76
2024/01/04 01:02:36;;;;;;;0.50;0.50;;;;;;;6.06;94.99;96476.66;4991804;28;20030;-75
2024/01/04 01:05:01;;;;;;;0.70;0.70;;;;;;;6.13;94.67;96473.69;4988800;28;20045;-76
2024/01/04 01:07:26;;;;;;;1.85;0.70;;;;;;;5.97;95.20;96468.50;4991501;28;20038;-75
2024/01/04 01:09:52;;;;;;;0.82;0.82;;;;;;;6.00;95.13;96489.16;4990778;28;20061;-75
2024/01/04 01:12:18;;;;;;;2.65;0.80;;;;;;;6.13;94.81;96492.22;4989208;28;20034;-76
2024/01/04 01:14:43;;;;;;;1.33;0.60;;;;;;;5.95;95.06;96491.81;4990591;28;20053;-75
2024/01/04 01:17:08;;;;;;;1.40;0.52;;;;;;;6.05;94.83;96494.38;4986734;28;20101;-75
2024/01/04 01:19:34;;;;;;;0.88;0.85;;;;;;;6.01;95.15;96498.66;4986607;28;20403;-76
2024/01/04 01:21:59;;;;;;;0.40;0.40;;;;;;;5.88;95.23;96507.22;4986487;28;20053;-75
2024/01/04 01:24:24;;;;;;;1.95;0.70;;;;;;;6.03;94.68;96509.75;4984818;28;20153;-75
2024/01/04 01:26:50;;;;;;;0.95;0.52;;;;;;;6.05;95.03;96518.22;4988294;28;20064;-75
2024/01/04 01:29:15;;;;;;;0.68;0.68;;;;;;;5.92;94.76;96523.34;4981997;28;20065;-75
2024/01/04 01:31:44;;;;;;;0.52;0.52;;;;;;;5.90;95.03;96525.47;4980776;28;20161;-75
2024/01/04 01:34:09;;;;;;;0.63;0.55;;;;;;;5.95;95.74;96520.16;4983352;28;20113;-75
2024/01/04 01:36:39;;;;;;;0.65;0.65;;;;;;;6.01;94.70;96511.91;4981246;28;20052;-75
2024/01/04 01:39:04;;;;;;;1.55;0.90;;;;;;;5.97;94.84;96499.50;4982559;28;20562;-75
2024/01/04 01:41:30;;;;;;;0.85;0.40;;;;;;;5.79;95.35;96508.03;4982589;28;20112;-75
2024/01/04 01:43:55;;;;;;;0.65;0.65;;;;;;;5.92;95.28;96518.03;4983039;28;20070;-75
2024/01/04 01:46:21;;;;;;;1.10;0.60;;;;;;;5.99;95.50;96518.53;4979223;28;20034;-75
2024/01/04 01:48:46;;;;;;;0.57;0.40;;;;;;;5.99;94.99;96521.19;4989948;28;20045;-76
2024/01/04 01:51:13;;;;;;;0.80;0.50;;;;;;;5.96;94.38;96527.03;4983838;28;20042;-75
2024/01/04 01:53:39;;;;;;;1.23;0.63;;;;;;;5.97;95.33;96521.47;4976174;28;20039;-75
2024/01/04 01:56:05;;;;;;;1.05;0.40;;;;;;;5.95;95.63;96526.25;4976603;28;20727;-75
2024/01/04 01:58:30;;;;;;;0.82;0.68;;;;;;;6.01;95.68;96527.78;4976067;28;20137;-75
2024/01/04 02:00:56;;;;;;;0.95;0.80;;;;;;;6.05;94.77;96528.81;4975666;28;20410;-75
2024/01/04 02:03:22;;;;;;;1.48;0.63;;;;;;;6.05;95.39;96538.59;4975564;28;20099;-77
2024/01/04 02:05:47;;;;;;;0.82;0.70;;;;;;;6.06;94.65;96534.91;4975792;28;20032;-75
2024/01/04 02:08:12;;;;;;;0.85;0.85;;;;;;;6.03;94.98;96536.25;4975739;28;20042;-76
2024/01/04 02:10:38;;;;;;;1.13;0.82;;;;;;;5.91;95.03;96537.66;4975297;28;20030;-75
2024/01/04 02:13:03;;;;;;;0.77;0.65;;;;;;;6.01;95.09;96533.06;4975257;28;20046;-75
2024/01/04 02:15:29;;;;;;;2.35;0.60;;;;;;;6.10;94.97;96540.44;4977714;28;20558;-75
2024/01/04 02:17:54;;;;;;;0.50;0.50;;;;;;;6.04;95.13;96548.44;4975154;28;20113;-75
2024/01/04 02:20:20;;;;;;;1.85;0.93;;;;;;;5.97;94.80;96553.22;4975428;28;20076;-75
2024/01/04 02:22:45;;;;;;;0.50;0.50;;;;;;;5.89;95.08;96553.81;4975501;28;20046;-75
2024/01/04 02:25:11;;;;;;;0.70;0.43;;;;;;;5.94;94.72;96567.00;4976507;28;20475;-76
2024/01/04 02:27:36;;;;;;;0.95;0.50;;;;;;;5.81;94.82;96551.69;4976293;28;20031;-75
2024/01/04 02:30:02;;;;;;;0.55;0.50;;;;;;;5.90;95.65;96568.63;4977127;28;20061;-75
2024/01/04 02:32:27;;;;;;;0.20;0.20;;;;;;;5.90;95.26;96562.53;4973575;28;20121;-75
2024/01/04 02:34:52;;;;;;;0.28;0.28;;;;;;;6.04;94.21;96574.91;4974093;28;20042;-74
2024/01/04 02:37:18;;;;;;;0.52;0.52;;;;;;;6.06;93.84;96577.28;4975217;28;20034;-75
2024/01/04 02:39:43;;;;;;;0.60;0.60;;;;;;;6.07;94.20;96579.63;4977072;28;20066;-75
2024/01/04 02:42:08;;;;;;;0.50;0.50;;;;;;;6.03;94.01;96586.53;4973503;28;20034;-75
2024/01/04 02:44:34;;;;;;;3.75;0.90;;;;;;;6.11;93.76;96593.13;4981338;28;20078;-75
2024/01/04 02:46:59;;;;;;;1.05;0.98;;;;;;;6.01;93.78;96596.63;4976354;28;20113;-76
2024/01/04 02:49:24;;;;;;;0.35;0.35;;;;;;;6.05;94.30;96597.66;4979624;28;20113;-75
2024/01/04 02:51:50;;;;;;;0.73;0.65;;;;;;;6.12;94.21;96607.94;4986708;28;20117;-74
2024/01/04 02:54:15;;;;;;;1.27;0.70;;;;;;;6.05;93.50;96604.78;4987255;28;20105;-76
2024/01/04 02:56:40;;;;;;;3.08;0.77;;;;;;;6.11;92.82;96613.53;4983857;28;20157;-75
2024/01/04 02:59:07;;;;;;;0.55;0.55;;;;;;;6.07;93.65;96614.06;4981060;28;20026;-75
2024/01/04 03:01:33;;;;;;;3.45;0.80;;;;;;;6.02;94.15;96624.69;4979873;28;20152;-77
2024/01/04 03:03:58;;;;;;;3.75;0.90;;;;;;;6.02;94.78;96622.06;4980456;28;20482;-75
2024/01/04 03:06:25;;;;;;;1.40;0.93;;;;;;;6.03;94.17;96631.56;4980892;28;21748;-75
2024/01/04 03:08:51;;;;;;;0.80;0.80;;;;;;;5.94;94.54;96625.25;4981762;28;20031;-77
2024/01/04 03:11:17;;;;;;;2.03;0.88;;;;;;;6.06;94.04;96624.94;4979770;28;20311;-74
2024/01/04 03:13:43;;;;;;;0.80;0.80;;;;;;;6.08;93.51;96620.16;4977068;28;20734;-75
2024/01/04 03:16:08;;;;;;;0.90;0.90;;;;;;;6.15;93.65;96627.78;4981534;28;20066;-75
2024/01/04 03:18:34;;;;;;;2.47;1.40;;;;;;;6.14;93.21;96626.22;4976837;28;20077;-76
2024/01/04 03:21:04;;;;;;;1.48;0.60;;;;;;;6.03;93.48;96642.16;4980746;28;20101;-75
2024/01/04 03:23:29;;;;;;;1.90;0.90;;;;;;;6.02;94.27;96639.78;4980861;28;20038;-75
2024/01/04 03:25:55;;;;;;;1.75;1.27;;;;;;;6.03;94.57;96651.94;4982767;28;20042;-77
2024/01/04 03:28:20;;;;;;;1.60;0.95;;;;;;;6.07;94.49;96643.19;4981771;28;20112;-75
2024/01/04 03:30:46;;;;;;;1.05;0.98;;;;;;;6.12;93.75;96645.00;4981384;28;20471;-77
2024/01/04 03:33:11;;;;;;;1.13;0.57;;;;;;;6.04;94.75;96635.81;4981660;28;20399;-76
2024/01/04 03:35:36;;;;;;;1.33;1.17;;;;;;;6.14;94.01;96652.72;4982398;28;20495;-74
2024/01/04 03:38:02;;;;;;;2.13;1.15;;;;;;;6.21;93.79;96650.53;4985517;28;20116;-75
2024/01/04 03:40:27;;;;;;;1.33;1.23;;;;;;;6.09;94.16;96655.38;4986264;28;20037;-75
2024/01/04 03:42:52;;;;;;;3.08;1.08;;;;;;;6.09;94.32;96650.88;4985933;28;20545;-76
2024/01/04 03:45:18;;;;;;;1.52;1.20;;;;;;;6.14;94.01;96666.72;4982188;28;20544;-77
2024/01/04 03:47:43;;;;;;;1.85;1.23;;;;;;;6.12;93.82;96654.81;4990278;28;20525;-76
2024/01/04 03:50:09;;;;;;;2.45;1.05;;;;;;;6.04;94.10;96661.47;4987111;28;20061;-75
2024/01/04 03:52:35;;;;;;;1.52;1.40;;;;;;;6.06;94.39;96654.06;4987415;28;20042;-75
2024/01/04 03:55:00;;;;;;;1.17;1.08;;;;;;;6.03;94.94;96663.34;4983192;28;20084;-76
2024/01/04 03:57:25;;;;;;;1.20;1.10;;;;;;;6.16;94.13;96677.81;4985572;28;20978;-76
2024/01/04 03:59:51;;;;;;;2.67;1.23;;;;;;;6.10;94.67;96688.72;4985186;28;20038;-76
2024/01/04 04:02:16;;;;;;;5.22;1.85;;;;;;;6.11;94.33;96687.66;4988012;28;20036;-76
2024/01/04 04:04:41;;;;;;;1.27;1.17;;;;;;;6.07;95.07;96695.38;4986018;28;20037;-75
2024/01/04 04:07:07;;;;;;;1.45;1.35;;;;;;;6.14;93.89;96701.13;4988186;28;20050;-75
2024/01/04 04:09:32;;;;;;;1.60;1.50;;;;;;;6.01;94.26;96693.78;4989144;28;20034;-76
2024/01/04 04:11:57;;;;;;;1.40;1.20;;;;;;;6.08;94.53;96702.25;4986654;28;20023;-76
2024/01/04 04:14:23;;;;;;;2.38;1.42;;;;;;;6.13;94.66;96696.94;4988062;28;20078;-76
2024/01/04 04:16:48;;;;;;;2.38;2.13;;;;;;;6.07;95.15;96710.47;4990856;28;20026;-76
2024/01/04 04:19:14;;;;;;;1.88;1.65;;;;;;;6.13;94.93;96712.81;4989817;28;20044;-75
2024/01/04 04:21:40;;;;;;;4.43;1.70;;;;;;;6.18;94.15;96719.94;4986545;28;20085;-75
2024/01/04 04:24:06;;;;;;;2.05;1.85;;;;;;;6.07;94.67;96718.41;4988323;28;20026;-76
2024/01/04 04:26:31;;;;;;;3.00;1.80;;;;;;;6.10;94.60;96723.94;4990317;28;20071;-75
2024/01/04 04:28:57;;;;;;;3.33;1.67;;;;;;;6.10;95.14;96731.09;4990241;28;20100;-75
2024/01/04 04:31:22;;;;;;;1.65;1.40;;;;;;;6.10;94.59;96731.88;4988213;28;20034;-75
2024/01/04 04:33:48;;;;;;;3.38;2.30;;;;;;;6.13;94.37;96746.44;4988698;28;20081;-76
2024/01/04 04:36:14;;;;;;;2.80;1.85;;;;;;;6.09;95.04;96745.41;4985743;28;20030;-75
2024/01/04 04:38:41;;;;;;;2.63;1.90;;;;;;;6.07;95.17;96758.94;4984012;28;20034;-75
2024/01/04 04:41:07;;;;;;;2.30;2.10;;;;;;;6.09;95.30;96761.28;4989080;28;20114;-75
2024/01/04 04:43:33;;;;;;;1.90;1.75;;;;;;;6.10;95.73;96766.31;4984658;28;20038;-74
2024/01/04 04:45:59;;;;;;;2.42;2.15;;;;;;;6.07;95.27;96774.03;4980152;28;20920;-76
2024/01/04 04:48:25;;;;;;;5.90;2.53;;;;;;;6.04;96.13;96773.50;4982802;28;20026;-75
2024/01/04 04:50:52;;;;;;;2.08;1.88;;;;;;;6.04;95.98;96786.75;4986587;28;20410;-75
2024/01/04 04:53:18;;;;;;;2.22;1.50;;;;;;;6.15;95.90;96792.78;4983037;28;20038;-76
2024/01/04 04:55:43;;;;;;;2.63;1.77;;;;;;;5.96;95.88;96789.91;4981855;28;20039;-76
2024/01/04 04:58:08;;;;;;;1.88;1.20;;;;;;;5.90;95.79;96790.19;4982578;28;20064;-76
2024/01/04 05:00:34;;;;;;;1.98;1.77;;;;;;;6.06;94.66;96783.81;4981406;28;20041;-76
2024/01/04 05:03:00;;;;;;;1.90;1.70;;;;;;;6.03;95.41;96785.13;4980653;28;20026;-76
2024/01/04 05:05:25;;;;;;;1.98;1.70;;;;;;;6.02;96.27;96788.06;4984856;28;20641;-76
2024/01/04 05:07:50;;;;;;;1.40;1.30;;;;;;;5.99;94.67;96799.97;4981113;28;20376;-75
2024/01/04 05:10:16;;;;;;;1.80;1.70;;;;;;;5.95;94.84;96801.59;4982907;28;20038;-77
2024/01/04 05:12:41;;;;;;;2.97;1.95;;;;;;;6.14;94.96;96801.78;4982716;28;20034;-76
2024/01/04 05:15:07;;;;;;;1.42;1.33;;;;;;;6.10;94.16;96805.22;4981288;28;20399;-75
2024/01/04 05:17:32;;;;;;;2.45;1.75;;;;;;;6.05;95.03;96806.03;4982459;28;20034;-76
2024/01/04 05:19:57;;;;;;;2.30;1.80;;;;;;;6.07;94.94;96809.25;4983600;28;20036;-74
2024/01/04 05:22:23;;;;;;;3.58;1.88;;;;;;;6.13;94.12;96808.16;4984909;28;20133;-74
2024/01/04 05:24:48;;;;;;;2.45;1.90;;;;;;;6.18;93.82;96812.66;4982967;28;20084;-76
2024/01/04 05:27:13;;;;;;;1.98;1.65;;;;;;;6.19;93.95;96814.22;4987563;28;20062;-75
2024/01/04 05:29:39;;;;;;;2.63;2.42;;;;;;;6.20;94.07;96821.91;4986645;28;20034;-74
2024/01/04 05:32:04;;;;;;;3.05;2.40;;;;;;;6.10;94.49;96816.63;4987913;28;20030;-74
2024/01/04 05:34:32;;;;;;;4.00;1.75;;;;;;;6.13;93.57;96825.91;4986063;28;20475;-74
2024/01/04 05:36:58;;;;;;;7.38;2.55;;;;;;;5.89;94.56;96828.34;4987096;28;20039;-75
2024/01/04 05:39:24;;;;;;;1.60;1.40;;;;;;;5.92;94.76;96839.19;4989406;28;20782;-75
2024/01/04 05:41:49;;;;;;;5.90;1.67;;;;;;;5.87;94.37;96839.22;4987296;28;20487;-75
2024/01/04 05:44:14;;;;;;;2.35;1.60;;;;;;;5.96;94.77;96848.16;4987999;28;20129;-75
2024/01/04 05:46:40;;;;;;;4.95;2.28;;;;;;;6.01;93.46;96850.81;4985863;28;20033;-76
2024/01/04 05:49:06;;;;;;;1.95;1.45;;;;;;;5.87;94.05;96859.59;4988074;28;20031;-76
2024/01/04 05:51:31;;;;;;;4.18;2.05;;;;;;;6.02;94.02;96868.31;4986143;28;20066;-77
2024/01/04 05:53:57;;;;;;;1.90;1.70;;;;;;;5.97;93.19;96870.16;4987180;28;20092;-76
2024/01/04 05:56:22;;;;;;;3.42;1.50;;;;;;;5.82;93.62;96880.72;4983743;28;20513;-77
2024/01/04 05:58:48;;;;;;;6.40;2.38;;;;;;;5.97;93.68;96897.41;4986223;28;20039;-76
2024/01/04 06:01:14;;;;;;;3.10;2.15;;;;;;;5.90;93.31;96901.38;4985742;28;20034;-75
2024/01/04 06:03:39;;;;;;;1.75;1.45;;;;;;;5.88;93.41;96920.19;4982334;28;20050;-74
2024/01/04 06:06:05;;;;;;;2.10;1.30;;;;;;;5.86;93.70;96922.31;4985903;28;20032;-74
2024/01/04 06:08:30;;;;;;;3.83;1.80;;;;;;;5.74;93.45;96929.72;4990587;28;20058;-75
2024/01/04 06:10:55;;;;;;;6.38;2.03;;;;;;;5.75;93.33;96920.69;4985799;28;20052;-75
2024/01/04 06:13:26;;;;;;;3.25;1.85;;;;;;;5.84;93.43;96934.22;4988369;28;20503;-75
2024/01/04 06:15:52;;;;;;;4.75;2.10;;;;;;;5.76;93.82;96947.97;4986595;28;20034;-75
2024/01/04 06:18:17;;;;;;;2.58;1.70;;;;;;;5.93;92.81;96959.13;4990275;28;20056;-74
2024/01/04 06:20:43;;;;;;;9.68;2.03;;;;;;;5.95;92.69;96965.75;4985056;28;20487;-75
2024/01/04 06:23:08;;;;;;;4.18;2.15;;;;;;;5.93;93.45;96959.13;4986558;28;20084;-75
2024/01/04 06:25:34;;;;;;;2.15;1.88;;;;;;;5.99;92.58;96969.44;4985339;28;20045;-75
2024/01/04 06:27:59;;;;;;;6.22;1.90;;;;;;;5.68;92.33;96951.91;4986429;28;20036;-75
2024/01/04 06:30:25;;;;;;;5.85;2.17;;;;;;;5.92;93.19;96957.50;4981568;28;20062;-75
2024/01/04 06:32:50;;;;;;;3.17;2.05;;;;;;;5.86;93.05;96969.97;4987322;28;20041;-75
2024/01/04 06:35:15;;;;;;;6.45;2.50;;;;;;;5.79;93.18;96969.41;4989260;28;20029;-75
2024/01/04 06:37:41;;;;;;;5.25;2.58;;;;;;;5.85;93.27;96980.84;4984539;28;20038;-75
2024/01/04 06:40:08;;;;;;;4.38;2.30;;;;;;;5.93;92.84;96985.59;4983837;28;20031;-75
2024/01/04 06:42:36;;;;;;;4.00;2.25;;;;;;;5.89;92.68;96985.34;4985824;28;20026;-75
2024/01/04 06:45:05;;;;;;;2.97;2.05;;;;;;;5.86;93.30;97007.03;4989372;28;20054;-75
2024/01/04 06:47:31;;;;;;;4.30;2.70;;;;;;;5.96;92.49;96998.31;4988977;28;20081;-74
2024/01/04 06:49:56;;;;;;;4.50;2.85;;;;;;;5.83;91.86;96999.56;4987300;28;20038;-75
2024/01/04 06:52:22;;;;;;;3.22;2.20;;;;;;;5.97;92.23;96999.88;4987435;28;22385;-74
2024/01/04 06:54:47;;;;;;;7.97;2.88;;;;;;;5.79;92.47;97006.47;4984650;28;20030;-74
2024/01/04 06:57:12;;;;;;;6.35;2.40;;;;;;;5.96;91.91;97025.56;4987039;28;20067;-74
2024/01/04 06:59:38;;;;;;;4.15;2.85;;;;;;;6.03;91.25;97012.06;4989261;28;20041;-74
2024/01/04 07:02:06;;;;;;;6.25;3.45;;;;;;;6.02;91.87;97031.66;4987389;28;20042;-74
2024/01/04 07:04:31;;;;;;;11.15;3.17;;;;;;;5.96;91.45;97030.09;4983777;28;20030;-74
2024/01/04 07:06:57;;;;;;;4.90;2.63;;;;;;;5.83;91.70;97036.63;4988896;28;20030;-74
2024/01/04 07:09:22;;;;;;;5.68;3.03;;;;;;;5.85;92.21;97036.41;4987185;28;20030;-75
2024/01/04 07:11:47;;;;;;;1.52;1.42;;;;;;;5.84;91.98;97043.56;4986316;28;20117;-75
2024/01/04 07:14:13;;;;;;;2.35;1.85;;;;;;;5.69;92.06;97035.56;4988699;28;20030;-75
2024/01/04 07:16:46;;;;;;;3.97;2.13;;;;;;;5.88;91.44;97047.28;4986669;28;20026;-75
2024/01/04 07:19:12;;;;;;;4.75;2.55;;;;;;;5.87;91.58;97034.31;4988642;28;20032;-75
2024/01/04 07:21:39;;;;;;;5.22;2.90;;;;;;;5.95;91.24;97037.22;4986474;28;20030;-76
2024/01/04 07:24:05;;;;;;;3.20;1.70;;;;;;;6.05;90.62;97052.31;4983372;28;20145;-75
2024/01/04 07:26:30;;;;;;;3.65;2.40;;;;;;;5.99;90.94;97058.66;4989425;28;20121;-75
2024/01/04 07:28:55;;;;;;;5.38;2.38;;;;;;;5.95;90.90;97058.41;4992290;28;20600;-75
2024/01/04 07:31:21;;;;;;;5.35;3.05;;;;;;;5.94;91.65;97058.69;4986512;28;20037;-75
2024/01/04 07:33:46;;;;;;;8.02;3.28;;;;;;;5.97;92.15;97058.94;4986921;28;20185;-76
2024/01/04 07:36:12;;;;;;;5.78;3.35;;;;;;;5.93;92.16;97070.31;4987903;28;20070;-78
2024/01/04 07:38:37;;;;;;;5.95;3.13;;;;;;;5.84;92.45;97077.97;4988997;28;20034;-76
2024/01/04 07:41:03;;;;;;;2.50;2.30;;;;;;;5.82;91.67;97079.25;4990019;28;20519;-76
2024/01/04 07:43:29;;;;;;;4.15;2.60;;;;;;;5.93;91.14;97075.59;4983135;28;20072;-78
2024/01/04 07:45:55;;;;;;;9.02;3.10;;;;;;;6.01;91.15;97070.59;4986631;28;20022;-76
2024/01/04 07:48:20;;;;;;;6.05;2.70;;;;;;;5.91;91.36;97078.53;4981574;28;20088;-74
2024/01/04 07:50:46;;;;;;;5.78;2.92;;;;;;;5.79;92.06;97091.16;4980518;28;20038;-75
2024/01/04 07:53:12;;;;;;;7.78;2.45;;;;;;;5.61;93.38;97083.72;4979243;28;20034;-75
2024/01/04 07:55:37;;;;;;;3.67;2.70;;;;;;;5.83;92.88;97081.63;4981533;28;20082;-75
2024/01/04 07:58:03;;;;;;;4.75;2.63;;;;;;;5.88;92.47;97094.13;4981112;28;20030;-75
2024/01/04 08:00:28;;;;;;;5.13;2.97;;;;;;;6.00;92.16;97098.16;4983678;28;20686;-75
2024/01/04 08:02:53;;;;;;;7.55;2.90;;;;;;;5.86;92.69;97102.34;4983323;28;20038;-75
2024/01/04 08:05:19;;;;;;;5.25;2.67;;;;;;;5.86;92.35;97099.69;4983291;28;20141;-75
2024/01/04 08:07:44;;;;;;;4.88;2.22;;;;;;;5.82;93.41;97100.44;4986856;28;20058;-77
2024/01/04 08:10:11;;;;;;;4.07;2.58;;;;;;;5.81;92.50;97099.63;4986395;28;20034;-75
2024/01/04 08:12:40;;;;;;;4.80;2.17;;;;;;;5.83;92.31;97097.53;4986192;28;20025;-74
2024/01/04 08:15:07;;;;;;;5.10;3.05;;;;;;;5.89;91.82;97099.19;4981419;28;20026;-76
2024/01/04 08:17:32;;;;;;;3.08;2.30;;;;;;;5.89;92.48;97109.78;4978437;28;20042;-76
2024/01/04 08:19:58;;;;;;;3.90;2.30;;;;;;;5.90;92.94;97111.34;4986006;28;20037;-76
2024/01/04 08:22:23;;;;;;;5.10;3.00;;;;;;;5.83;92.00;97110.75;4991220;28;20053;-76
2024/01/04 08:24:48;;;;;;;6.28;2.90;;;;;;;5.98;91.61;97118.78;4986573;28;20153;-74
2024/01/04 08:27:18;;;;;;;3.15;2.53;;;;;;;5.90;92.11;97121.13;4984049;28;20058;-76
2024/01/04 08:29:45;;;;;;;4.10;2.60;;;;;;;5.93;91.59;97129.38;4984948;28;20034;-76
2024/01/04 08:32:11;;;;;;;3.80;3.00;;;;;;;5.94;91.65;97138.13;4980630;28;21625;-75
2024/01/04 08:34:36;;;;;;;4.68;2.60;;;;;;;5.78;92.58;97134.59;4983312;28;20049;-75
2024/01/04 08:37:02;;;;;;;5.10;2.78;;;;;;;5.81;92.11;97144.63;4987144;28;20081;-76
2024/01/04 08:39:28;;;;;;;3.65;2.55;;;;;;;6.01;91.73;97150.03;4984688;28;20034;-74
2024/01/04 08:41:53;;;;;;;3.15;2.17;;;;;;;5.92;91.96;97154.25;4986657;28;20061;-75
2024/01/04 08:44:19;;;;;;;3.35;1.83;;;;;;;5.95;92.36;97153.72;4979649;28;20069;-74
2024/01/04 08:46:44;;;;;;;4.43;2.33;;;;;;;5.86;92.15;97162.41;4985514;28;20034;-75
2024/01/04 08:49:11;;;;;;;4.55;2.45;;;;;;;6.01;91.78;97170.41;4987005;28;20034;-76
2024/01/04 08:51:36;;;;;;;4.55;2.30;;;;;;;5.96;92.00;97173.84;4984556;28;20084;-76
2024/01/04 08:54:01;;;;;;;5.13;2.72;;;;;;;5.87;92.60;97180.72;4981982;28;20038;-76
2024/01/04 08:56:27;;;;;;;2.53;2.05;;;;;;;5.89;92.49;97177.81;4986001;28;20127;-75
2024/01/04 08:58:52;;;;;;;2.17;1.83;;;;;;;5.90;92.37;97182.03;4988059;28;20204;-76
2024/01/04 09:01:18;;;;;;;4.75;2.15;;;;;;;5.93;92.58;97192.91;4987958;28;20060;-76
2024/01/04 09:03:43;;;;;;;2.63;1.90;;;;;;;5.93;91.96;97182.31;4981392;28;20051;-75
2024/01/04 09:06:11;;;;;;;3.72;1.67;;;;;;;5.96;91.72;97186.31;4985990;28;20173;-75
2024/01/04 09:08:37;;;;;;;6.60;1.85;;;;;;;5.89;92.14;97196.34;4984349;28;20030;-76
2024/01/04 09:11:03;;;;;;;5.75;2.60;;;;;;;5.98;92.26;97195.56;4988462;28;20506;-76
2024/01/04 09:13:29;;;;;;;3.20;1.95;;;;;;;5.97;92.72;97203.78;4982393;28;20085;-76
2024/01/04 09:15:55;;;;;;;2.47;1.50;;;;;;;5.83;91.83;97205.28;4984065;28;20034;-74
2024/01/04 09:18:20;;;;;;;4.00;1.65;;;;;;;5.85;92.48;97209.28;4980013;28;20034;-76
2024/01/04 09:20:45;;;;;;;3.05;1.83;;;;;;;5.83;92.54;97221.16;4985170;28;20040;-75
2024/01/04 09:23:11;;;;;;;4.15;2.22;;;;;;;5.76;92.09;97220.59;4990378;28;20383;-76
2024/01/04 09:25:36;;;;;;;4.05;2.28;;;;;;;5.84;92.71;97217.47;4992509;28;20084;-75
2024/01/04 09:28:02;;;;;;;2.05;1.77;;;;;;;5.93;92.24;97221.22;4985906;28;20080;-74
2024/01/04 09:30:29;;;;;;;7.10;2.10;;;;;;;5.83;92.69;97229.88;4982869;28;20034;-74
2024/01/04 09:32:54;;;;;;;2.13;1.73;;;;;;;5.72;93.21;97230.88;4979730;28;20042;-75
2024/01/04 09:35:22;;;;;;;4.93;2.17;;;;;;;5.82;93.15;97232.81;4985474;28;20038;-74
2024/01/04 09:37:49;;;;;;;2.60;1.90;;;;;;;5.84;93.34;97246.59;4986623;28;20042;-75
2024/01/04 09:40:15;;;;;;;2.28;2.08;;;;;;;5.73;93.14;97237.78;4989888;28;20030;-74
2024/01/04 09:42:41;;;;;;;5.05;2.33;;;;;;;5.87;93.13;97256.69;4985173;28;20044;-75
2024/01/04 09:45:10;;;;;;;4.97;2.20;;;;;;;5.92;92.84;97262.78;4984424;28;20034;-74
2024/01/04 09:47:39;;;;;;;4.03;2.17;;;;;;;5.83;93.34;97268.81;4984882;28;20018;-74
2024/01/04 09:50:05;;;;;;;2.47;2.28;;;;;;;5.85;93.04;97264.09;4988444;28;20031;-74
2024/01/04 09:52:33;;;;;;;2.45;1.95;;;;;;;5.81;93.93;97269.06;4989470;28;20027;-75
2024/01/04 09:55:00;;;;;;;2.10;1.95;;;;;;;6.01;92.91;97277.16;4981171;28;20026;-75
2024/01/04 09:57:25;;;;;;;6.20;2.38;;;;;;;5.99;92.90;97273.16;4983700;28;20034;-74
2024/01/04 09:59:50;;;;;;;2.30;1.70;;;;;;;6.07;93.05;97276.09;4983498;28;20041;-75
2024/01/04 10:02:20;;;;;;;3.05;2.25;;;;;;;5.77;93.21;97264.53;4981461;28;20100;-75
2024/01/04 10:04:46;;;;;;;2.85;2.00;;;;;;;5.92;93.73;97286.63;4981340;28;20113;-74
2024/01/04 10:07:19;;;;;;;3.22;2.90;;;;;;;5.88;93.02;97301.44;4979227;28;20779;-74
2024/01/04 10:10:00;;;;;;;2.83;2.25;;;;;;;5.87;93.09;97289.25;4990323;28;20578;-74
2024/01/04 10:12:32;;;;;;;3.20;1.73;;;;;;;5.90;94.09;97299.31;4983320;28;20030;-74
2024/01/04 10:14:58;;;;;;;3.28;2.17;;;;;;;5.88;93.48;97290.84;4988861;28;20033;-74
2024/01/04 10:17:23;;;;;;;3.05;1.80;;;;;;;5.88;92.97;97301.44;4980739;28;20053;-75
2024/01/04 10:19:48;;;;;;;5.55;2.22;;;;;;;5.82;92.70;97285.75;4990267;28;20033;-74
2024/01/04 10:22:15;;;;;;;4.18;2.13;;;;;;;5.84;93.88;97299.56;4990477;28;20057;-75
2024/01/04 10:24:41;;;;;;;2.15;1.88;;;;;;;5.80;92.88;97301.09;4987700;28;20035;-75
2024/01/04 10:27:08;;;;;;;2.88;2.03;;;;;;;5.94;92.94;97308.34;4983070;28;20555;-75
2024/01/04 10:29:35;;;;;;;5.20;1.75;;;;;;;5.86;92.83;97308.03;4984678;28;20066;-74
2024/01/04 10:32:10;;;;;;;1.17;1.08;;;;;;;5.86;93.27;97314.13;4974833;28;20033;-75
2024/01/04 10:34:37;;;;;;;3.28;1.67;;;;;;;5.89;92.64;97323.41;4979034;28;20030;-75
2024/01/04 10:37:11;;;;;;;1.55;1.13;;;;;;;5.79;93.33;97326.75;4988879;28;20157;-75
2024/01/04 10:39:36;;;;;;;3.10;1.35;;;;;;;5.73;93.28;97326.97;4990082;28;20045;-75
2024/01/04 10:42:02;;;;;;;1.45;1.25;;;;;;;5.89;92.17;97329.53;4988253;28;20042;-74
2024/01/04 10:44:32;;;;;;;1.23;1.05;;;;;;;5.91;92.04;97327.41;4981632;28;20046;-74
2024/01/04 10:46:59;;;;;;;5.38;1.70;;;;;;;5.92;92.34;97344.88;4985266;28;20081;-75
2024/01/04 10:49:25;;;;;;;2.92;1.67;;;;;;;5.86;92.39;97335.31;4987231;28;20423;-75
2024/01/04 10:51:57;;;;;;;1.98;1.42;;;;;;;5.94;92.57;97355.22;4989405;28;20030;-75
2024/01/04 10:54:33;;;;;;;2.00;1.00;;;;;;;5.99;92.90;97356.06;4990459;28;20038;-75
2024/01/04 10:56:59;;;;;;;1.58;1.27;;;;;;;5.98;92.63;97353.66;4987451;28;20487;-75
2024/01/04 10:59:27;;;;;;;2.22;1.23;;;;;;;5.92;93.67;97359.97;4985152;28;20499;-75
2024/01/04 11:01:53;;;;;;;3.33;1.38;;;;;;;5.92;92.77;97352.81;5031646;23;20080;-82
2024/01/04 11:04:19;;;;;;;2.28;1.25;;;;;;;6.02;92.85;97363.50;5029200;28;21163;-82
2024/01/04 11:06:45;;;;;;;1.35;1.23;;;;;;;6.01;92.33;97364.53;5031539;28;20052;-82
2024/01/04 11:09:12;;;;;;;0.80;0.80;;;;;;;6.04;91.58;97379.13;5026222;28;20032;-83
2024/01/04 11:11:39;;;;;;;1.50;0.95;;;;;;;5.93;92.16;97361.56;5029887;28;20029;-82
2024/01/04 11:14:05;;;;;;;2.53;1.30;;;;;;;6.04;92.17;97384.41;5031197;28;20119;-82
2024/01/04 11:16:45;;;;;;;3.88;1.40;;;;;;;6.11;92.46;97392.13;5032193;28;20125;-82
2024/01/04 11:19:29;;;;;;;1.50;1.30;;;;;;;6.00;92.76;97393.94;5032555;28;20026;-82
2024/01/04 11:22:13;;;;;;;1.95;1.30;;;;;;;6.10;91.81;97390.53;5027308;28;20032;-80
2024/01/04 11:24:58;;;;;;;1.55;1.45;;;;;;;6.14;91.79;97389.00;5030120;28;20052;-80
2024/01/04 11:27:26;;;;;;;2.63;1.50;;;;;;;6.11;91.71;97384.19;5031135;28;20017;-82
2024/01/04 11:29:51;;;;;;;3.25;2.35;;;;;;;6.02;91.69;97391.81;5026274;28;20041;-82
2024/01/04 11:32:18;;;;;;;5.00;1.65;;;;;;;5.95;92.22;97378.00;5023449;28;20026;-81
2024/01/04 11:34:44;;;;;;;2.05;1.40;;;;;;;6.12;91.73;97396.38;5026588;28;20033;-82
2024/01/04 11:37:21;;;;;;;3.45;2.13;;;;;;;6.03;91.64;97388.91;5033446;28;20041;-82